Time;durP1;ratioP1;P1;durP2;ratioP2;P2;SDS_P1;SDS_P2;PMS_P1;PMS_P2;Temp;Humidity;BMP_temperature;BMP_pressure;BME280_temperature;BME280_humidity;BME280_pressure;Samples;Min_cycle;Max_cycle;Signal;HPM_P1;HPM_P2
2019/12/01 00:00:52;;;;;;;14.65;8.550001;;;;;;;-1.39;83.23828;95445.53;;;;
2019/12/01 00:10:08;;;;;;;18.15;8.4;;;;;;;-1.43;83.13574;95411.08;;;;
2019/12/01 00:19:23;;;;;;;17.5;8.599999;;;;;;;-1.46;83.58789;95406.95;;;;
2019/12/01 00:28:38;;;;;;;15.15;8.100001;;;;;;;-1.33;83.72852;95389.18;;;;
2019/12/01 00:37:54;;;;;;;15.15;8.100001;;;;;;;-1.33;83.72852;95389.18;;;;
2019/12/01 00:47:09;;;;;;;16.75;8.099999;;;;;;;-1.33;83.68652;95409.57;;;;
2019/12/01 00:56:24;;;;;;;13.7;8.050001;;;;;;;-1.39;83.78809;95395.22;;;;
2019/12/01 01:05:39;;;;;;;15.5;8.65;;;;;;;-1.42;83.79297;95415.83;;;;
2019/12/01 01:14:56;;;;;;;16.25;8.749999;;;;;;;-1.46;83.95117;95425.97;;;;
2019/12/01 01:24:11;;;;;;;17.6;9.150001;;;;;;;-1.54;83.95703;95379.11;;;;
2019/12/01 01:33:27;;;;;;;16.5;8.9;;;;;;;-1.55;83.91211;95382.34;;;;
2019/12/01 01:42:42;;;;;;;16.45;8.349999;;;;;;;-1.53;83.98828;95349.52;;;;
2019/12/01 01:51:57;;;;;;;16.45;8.349999;;;;;;;-1.53;83.98828;95349.52;;;;
2019/12/01 02:01:13;;;;;;;16.5;8.899999;;;;;;;-1.49;83.97656;95356.53;;;;
2019/12/01 02:02:21;;;;;;;16.5;8.899999;;;;;;;-1.49;83.97656;95356.53;;;;
2019/12/01 02:03:22;;;;;;;14.9;7.6;;;;;;;-1.43;83.95508;95351.51;;;;
2019/12/01 02:04:23;;;;;;;14.9;7.6;;;;;;;-1.43;83.95508;95351.51;;;;
2019/12/01 02:05:24;;;;;;;14.9;7.6;;;;;;;-1.43;83.95508;95351.51;;;;
2019/12/01 02:06:25;;;;;;;14.9;7.6;;;;;;;-1.43;83.95508;95351.51;;;;
2019/12/01 02:07:27;;;;;;;14.9;7.6;;;;;;;-1.43;83.95508;95351.51;;;;
2019/12/01 02:08:28;;;;;;;14.9;7.6;;;;;;;-1.43;83.95508;95351.51;;;;
2019/12/01 02:09:30;;;;;;;14.9;7.6;;;;;;;-1.43;83.95508;95351.51;;;;
2019/12/01 02:10:31;;;;;;;14.9;7.6;;;;;;;-1.43;83.95508;95351.51;;;;
2019/12/01 02:11:33;;;;;;;14.9;7.6;;;;;;;-1.43;83.95508;95351.51;;;;
2019/12/01 02:12:35;;;;;;;14.9;7.6;;;;;;;-1.43;83.95508;95351.51;;;;
2019/12/01 02:13:36;;;;;;;14.9;7.6;;;;;;;-1.43;83.95508;95351.51;;;;
2019/12/01 02:14:42;;;;;;;14.9;7.6;;;;;;;-1.43;83.95508;95351.51;;;;
2019/12/01 02:15:48;;;;;;;14.9;7.6;;;;;;;-1.43;83.95508;95351.51;;;;
2019/12/01 02:16:59;;;;;;;14.9;7.6;;;;;;;-1.43;83.95508;95351.51;;;;
2019/12/01 02:18:01;;;;;;;14.9;7.6;;;;;;;-1.43;83.95508;95351.51;;;;
2019/12/01 02:19:02;;;;;;;14.9;7.6;;;;;;;-1.43;83.95508;95351.51;;;;
2019/12/01 02:20:04;;;;;;;14.9;7.6;;;;;;;-1.43;83.95508;95351.51;;;;
2019/12/01 02:21:05;;;;;;;14.9;7.6;;;;;;;-1.43;83.95508;95351.51;;;;
2019/12/01 02:22:06;;;;;;;14.9;7.6;;;;;;;-1.43;83.95508;95351.51;;;;
2019/12/01 02:23:07;;;;;;;14.9;7.6;;;;;;;-1.43;83.95508;95351.51;;;;
2019/12/01 02:24:08;;;;;;;14.9;7.6;;;;;;;-1.43;83.95508;95351.51;;;;
2019/12/01 02:25:10;;;;;;;13.9;8.650002;;;;;;;-1.44;83.88281;95301.73;;;;
2019/12/01 02:26:11;;;;;;;13.9;8.650002;;;;;;;-1.44;83.88281;95301.73;;;;
2019/12/01 02:27:12;;;;;;;13.9;8.650002;;;;;;;-1.44;83.88281;95301.73;;;;
2019/12/01 02:28:13;;;;;;;13.9;8.650002;;;;;;;-1.44;83.88281;95301.73;;;;
2019/12/01 02:29:14;;;;;;;13.9;8.650002;;;;;;;-1.44;83.88281;95301.73;;;;
2019/12/01 02:30:20;;;;;;;13.9;8.650002;;;;;;;-1.44;83.88281;95301.73;;;;
2019/12/01 02:32:02;;;;;;;13.9;8.650002;;;;;;;-1.44;83.88281;95301.73;;;;
2019/12/01 02:33:03;;;;;;;13.9;8.650002;;;;;;;-1.44;83.88281;95301.73;;;;
2019/12/01 02:34:04;;;;;;;13.9;8.650002;;;;;;;-1.44;83.88281;95301.73;;;;
2019/12/01 02:35:06;;;;;;;13.9;8.650002;;;;;;;-1.44;83.88281;95301.73;;;;
2019/12/01 02:36:07;;;;;;;14.7;8.200001;;;;;;;-1.43;84.5791;95288.39;;;;
2019/12/01 02:37:08;;;;;;;14.7;8.200001;;;;;;;-1.43;84.5791;95288.39;;;;
2019/12/01 02:38:10;;;;;;;14.7;8.200001;;;;;;;-1.43;84.5791;95288.39;;;;
2019/12/01 02:39:16;;;;;;;14.7;8.200001;;;;;;;-1.43;84.5791;95288.39;;;;
2019/12/01 02:40:22;;;;;;;14.7;8.200001;;;;;;;-1.43;84.5791;95288.39;;;;
2019/12/01 02:41:24;;;;;;;14.7;8.200001;;;;;;;-1.43;84.5791;95288.39;;;;
2019/12/01 02:42:29;;;;;;;14.7;8.200001;;;;;;;-1.43;84.5791;95288.39;;;;
2019/12/01 02:43:30;;;;;;;14.7;8.200001;;;;;;;-1.43;84.5791;95288.39;;;;
2019/12/01 02:44:31;;;;;;;14.7;8.200001;;;;;;;-1.43;84.5791;95288.39;;;;
2019/12/01 02:45:32;;;;;;;14.7;8.200001;;;;;;;-1.43;84.5791;95288.39;;;;
2019/12/01 02:46:34;;;;;;;16.2;8.250001;;;;;;;-1.32;84.88184;95288.92;;;;
2019/12/01 02:47:35;;;;;;;16.2;8.250001;;;;;;;-1.32;84.88184;95288.92;;;;
2019/12/01 02:48:36;;;;;;;16.2;8.250001;;;;;;;-1.32;84.88184;95288.92;;;;
2019/12/01 02:49:37;;;;;;;16.2;8.250001;;;;;;;-1.32;84.88184;95288.92;;;;
2019/12/01 02:50:38;;;;;;;16.2;8.250001;;;;;;;-1.32;84.88184;95288.92;;;;
2019/12/01 02:51:40;;;;;;;16.2;8.250001;;;;;;;-1.32;84.88184;95288.92;;;;
2019/12/01 02:52:41;;;;;;;16.2;8.250001;;;;;;;-1.32;84.88184;95288.92;;;;
2019/12/01 02:53:42;;;;;;;16.2;8.250001;;;;;;;-1.32;84.88184;95288.92;;;;
2019/12/01 02:54:43;;;;;;;16.2;8.250001;;;;;;;-1.32;84.88184;95288.92;;;;
2019/12/01 02:55:44;;;;;;;16.2;8.250001;;;;;;;-1.32;84.88184;95288.92;;;;
2019/12/01 02:56:45;;;;;;;15.2;8.049999;;;;;;;-1.33;85.03516;95251.5;;;;
2019/12/01 02:57:47;;;;;;;15.2;8.049999;;;;;;;-1.33;85.03516;95251.5;;;;
2019/12/01 02:58:48;;;;;;;15.2;8.049999;;;;;;;-1.33;85.03516;95251.5;;;;
2019/12/01 02:59:49;;;;;;;15.2;8.049999;;;;;;;-1.33;85.03516;95251.5;;;;
2019/12/01 03:00:51;;;;;;;15.2;8.049999;;;;;;;-1.33;85.03516;95251.5;;;;
2019/12/01 03:01:53;;;;;;;15.2;8.049999;;;;;;;-1.33;85.03516;95251.5;;;;
2019/12/01 03:02:55;;;;;;;15.2;8.049999;;;;;;;-1.33;85.03516;95251.5;;;;
2019/12/01 03:03:56;;;;;;;15.2;8.049999;;;;;;;-1.33;85.03516;95251.5;;;;
2019/12/01 03:04:57;;;;;;;15.2;8.049999;;;;;;;-1.33;85.03516;95251.5;;;;
2019/12/01 03:05:58;;;;;;;15.2;8.049999;;;;;;;-1.33;85.03516;95251.5;;;;
2019/12/01 03:07:00;;;;;;;16.95;8.649999;;;;;;;-1.4;85.21973;95270.36;;;;
2019/12/01 03:08:01;;;;;;;16.95;8.649999;;;;;;;-1.4;85.21973;95270.36;;;;
2019/12/01 03:09:02;;;;;;;16.95;8.649999;;;;;;;-1.4;85.21973;95270.36;;;;
2019/12/01 03:10:05;;;;;;;16.95;8.649999;;;;;;;-1.4;85.21973;95270.36;;;;
2019/12/01 03:11:09;;;;;;;16.95;8.649999;;;;;;;-1.4;85.21973;95270.36;;;;
2019/12/01 03:12:10;;;;;;;16.95;8.649999;;;;;;;-1.4;85.21973;95270.36;;;;
2019/12/01 03:13:12;;;;;;;16.95;8.649999;;;;;;;-1.4;85.21973;95270.36;;;;
2019/12/01 03:14:14;;;;;;;16.95;8.649999;;;;;;;-1.4;85.21973;95270.36;;;;
2019/12/01 03:15:16;;;;;;;16.95;8.649999;;;;;;;-1.4;85.21973;95270.36;;;;
2019/12/01 03:16:17;;;;;;;16.95;8.649999;;;;;;;-1.4;85.21973;95270.36;;;;
2019/12/01 03:17:19;;;;;;;16.95;8.649999;;;;;;;-1.4;85.21973;95270.36;;;;
2019/12/01 03:18:21;;;;;;;15.25;8.799999;;;;;;;-1.49;85.42871;95263.39;;;;
2019/12/01 03:19:24;;;;;;;15.25;8.799999;;;;;;;-1.49;85.42871;95263.39;;;;
2019/12/01 03:20:25;;;;;;;15.25;8.799999;;;;;;;-1.49;85.42871;95263.39;;;;
2019/12/01 03:21:26;;;;;;;15.25;8.799999;;;;;;;-1.49;85.42871;95263.39;;;;
2019/12/01 03:22:27;;;;;;;15.25;8.799999;;;;;;;-1.49;85.42871;95263.39;;;;
2019/12/01 03:23:28;;;;;;;15.25;8.799999;;;;;;;-1.49;85.42871;95263.39;;;;
2019/12/01 03:24:29;;;;;;;15.25;8.799999;;;;;;;-1.49;85.42871;95263.39;;;;
2019/12/01 03:25:30;;;;;;;15.25;8.799999;;;;;;;-1.49;85.42871;95263.39;;;;
2019/12/01 03:26:32;;;;;;;15.25;8.799999;;;;;;;-1.49;85.42871;95263.39;;;;
2019/12/01 03:27:33;;;;;;;15.25;8.799999;;;;;;;-1.49;85.42871;95263.39;;;;
2019/12/01 03:28:34;;;;;;;17.4;9.45;;;;;;;-1.53;85.5127;95252.89;;;;
2019/12/01 03:29:36;;;;;;;17.4;9.45;;;;;;;-1.53;85.5127;95252.89;;;;
2019/12/01 03:30:37;;;;;;;17.4;9.45;;;;;;;-1.53;85.5127;95252.89;;;;
2019/12/01 03:31:38;;;;;;;17.4;9.45;;;;;;;-1.53;85.5127;95252.89;;;;
2019/12/01 03:32:39;;;;;;;17.4;9.45;;;;;;;-1.53;85.5127;95252.89;;;;
2019/12/01 03:33:40;;;;;;;17.4;9.45;;;;;;;-1.53;85.5127;95252.89;;;;
2019/12/01 03:34:41;;;;;;;17.4;9.45;;;;;;;-1.53;85.5127;95252.89;;;;
2019/12/01 03:35:42;;;;;;;17.4;9.45;;;;;;;-1.53;85.5127;95252.89;;;;
2019/12/01 03:36:43;;;;;;;17.4;9.45;;;;;;;-1.53;85.5127;95252.89;;;;
2019/12/01 03:37:45;;;;;;;17.4;9.45;;;;;;;-1.53;85.5127;95252.89;;;;
2019/12/01 03:38:46;;;;;;;17.4;9.45;;;;;;;-1.53;85.5127;95252.89;;;;
2019/12/01 03:39:47;;;;;;;18.4;10.15;;;;;;;-1.55;85.62305;95256.61;;;;
2019/12/01 03:40:48;;;;;;;18.4;10.15;;;;;;;-1.55;85.62305;95256.61;;;;
2019/12/01 03:41:49;;;;;;;18.4;10.15;;;;;;;-1.55;85.62305;95256.61;;;;
2019/12/01 03:42:52;;;;;;;18.4;10.15;;;;;;;-1.55;85.62305;95256.61;;;;
2019/12/01 03:43:55;;;;;;;18.4;10.15;;;;;;;-1.55;85.62305;95256.61;;;;
2019/12/01 03:44:56;;;;;;;18.4;10.15;;;;;;;-1.55;85.62305;95256.61;;;;
2019/12/01 03:45:58;;;;;;;18.4;10.15;;;;;;;-1.55;85.62305;95256.61;;;;
2019/12/01 03:47:02;;;;;;;18.4;10.15;;;;;;;-1.55;85.62305;95256.61;;;;
2019/12/01 03:48:04;;;;;;;18.4;10.15;;;;;;;-1.55;85.62305;95256.61;;;;
2019/12/01 03:49:09;;;;;;;18.4;10.15;;;;;;;-1.55;85.62305;95256.61;;;;
2019/12/01 03:50:12;;;;;;;16.7;10;;;;;;;-1.54;85.74023;95261.32;;;;
2019/12/01 03:51:13;;;;;;;16.7;10;;;;;;;-1.54;85.74023;95261.32;;;;
2019/12/01 03:52:15;;;;;;;16.7;10;;;;;;;-1.54;85.74023;95261.32;;;;
2019/12/01 03:53:16;;;;;;;16.7;10;;;;;;;-1.54;85.74023;95261.32;;;;
2019/12/01 03:54:17;;;;;;;16.7;10;;;;;;;-1.54;85.74023;95261.32;;;;
2019/12/01 03:55:19;;;;;;;16.7;10;;;;;;;-1.54;85.74023;95261.32;;;;
2019/12/01 03:56:34;;;;;;;16.7;10;;;;;;;-1.54;85.74023;95261.32;;;;
2019/12/01 03:57:47;;;;;;;16.7;10;;;;;;;-1.54;85.74023;95261.32;;;;
2019/12/01 03:58:51;;;;;;;16.7;10;;;;;;;-1.54;85.74023;95261.32;;;;
2019/12/01 03:59:58;;;;;;;16.7;10;;;;;;;-1.54;85.74023;95261.32;;;;
2019/12/01 04:01:06;;;;;;;19.05;10.35;;;;;;;-1.52;85.9082;95254.96;;;;
2019/12/01 04:02:08;;;;;;;19.05;10.35;;;;;;;-1.52;85.9082;95254.96;;;;
2019/12/01 04:03:15;;;;;;;19.05;10.35;;;;;;;-1.52;85.9082;95254.96;;;;
2019/12/01 04:04:17;;;;;;;19.05;10.35;;;;;;;-1.52;85.9082;95254.96;;;;
2019/12/01 04:05:19;;;;;;;19.05;10.35;;;;;;;-1.52;85.9082;95254.96;;;;
2019/12/01 04:06:21;;;;;;;19.05;10.35;;;;;;;-1.52;85.9082;95254.96;;;;
2019/12/01 04:07:25;;;;;;;19.05;10.35;;;;;;;-1.52;85.9082;95254.96;;;;
2019/12/01 04:08:29;;;;;;;19.05;10.35;;;;;;;-1.52;85.9082;95254.96;;;;
2019/12/01 04:09:31;;;;;;;19.05;10.35;;;;;;;-1.52;85.9082;95254.96;;;;
2019/12/01 04:10:34;;;;;;;19.05;10.35;;;;;;;-1.52;85.9082;95254.96;;;;
2019/12/01 04:11:36;;;;;;;17.9;10.25;;;;;;;-1.39;85.76855;95258.37;;;;
2019/12/01 04:12:38;;;;;;;17.9;10.25;;;;;;;-1.39;85.76855;95258.37;;;;
2019/12/01 04:13:40;;;;;;;17.9;10.25;;;;;;;-1.39;85.76855;95258.37;;;;
2019/12/01 04:14:43;;;;;;;17.9;10.25;;;;;;;-1.39;85.76855;95258.37;;;;
2019/12/01 04:15:45;;;;;;;17.9;10.25;;;;;;;-1.39;85.76855;95258.37;;;;
2019/12/01 04:16:47;;;;;;;17.9;10.25;;;;;;;-1.39;85.76855;95258.37;;;;
2019/12/01 04:17:48;;;;;;;17.9;10.25;;;;;;;-1.39;85.76855;95258.37;;;;
2019/12/01 04:18:49;;;;;;;17.9;10.25;;;;;;;-1.39;85.76855;95258.37;;;;
2019/12/01 04:19:51;;;;;;;17.9;10.25;;;;;;;-1.39;85.76855;95258.37;;;;
2019/12/01 04:20:54;;;;;;;17.9;10.25;;;;;;;-1.39;85.76855;95258.37;;;;
2019/12/01 04:21:56;;;;;;;18.95;10.9;;;;;;;-1.27;85.69824;95242.97;;;;
2019/12/01 04:23:01;;;;;;;18.95;10.9;;;;;;;-1.27;85.69824;95242.97;;;;
2019/12/01 04:24:02;;;;;;;18.95;10.9;;;;;;;-1.27;85.69824;95242.97;;;;
2019/12/01 04:25:05;;;;;;;18.95;10.9;;;;;;;-1.27;85.69824;95242.97;;;;
2019/12/01 04:26:07;;;;;;;18.95;10.9;;;;;;;-1.27;85.69824;95242.97;;;;
2019/12/01 04:27:13;;;;;;;18.95;10.9;;;;;;;-1.27;85.69824;95242.97;;;;
2019/12/01 04:28:15;;;;;;;18.95;10.9;;;;;;;-1.27;85.69824;95242.97;;;;
2019/12/01 04:29:19;;;;;;;18.95;10.9;;;;;;;-1.27;85.69824;95242.97;;;;
2019/12/01 04:30:20;;;;;;;18.95;10.9;;;;;;;-1.27;85.69824;95242.97;;;;
2019/12/01 04:31:22;;;;;;;18.95;10.9;;;;;;;-1.27;85.69824;95242.97;;;;
2019/12/01 04:32:25;;;;;;;19.5;10.65;;;;;;;-1.16;85.68164;95224.94;;;;
2019/12/01 04:33:30;;;;;;;19.5;10.65;;;;;;;-1.16;85.68164;95224.94;;;;
2019/12/01 04:34:31;;;;;;;19.5;10.65;;;;;;;-1.16;85.68164;95224.94;;;;
2019/12/01 04:35:32;;;;;;;19.5;10.65;;;;;;;-1.16;85.68164;95224.94;;;;
2019/12/01 04:36:33;;;;;;;19.5;10.65;;;;;;;-1.16;85.68164;95224.94;;;;
2019/12/01 04:37:34;;;;;;;19.5;10.65;;;;;;;-1.16;85.68164;95224.94;;;;
2019/12/01 04:38:35;;;;;;;19.5;10.65;;;;;;;-1.16;85.68164;95224.94;;;;
2019/12/01 04:39:36;;;;;;;19.5;10.65;;;;;;;-1.16;85.68164;95224.94;;;;
2019/12/01 04:40:37;;;;;;;19.5;10.65;;;;;;;-1.16;85.68164;95224.94;;;;
2019/12/01 04:41:38;;;;;;;19.5;10.65;;;;;;;-1.16;85.68164;95224.94;;;;
2019/12/01 04:42:40;;;;;;;17.7;10.35;;;;;;;-1.08;85.67773;95218.72;;;;
2019/12/01 04:43:41;;;;;;;17.7;10.35;;;;;;;-1.08;85.67773;95218.72;;;;
2019/12/01 04:44:43;;;;;;;17.7;10.35;;;;;;;-1.08;85.67773;95218.72;;;;
2019/12/01 04:45:46;;;;;;;17.7;10.35;;;;;;;-1.08;85.67773;95218.72;;;;
2019/12/01 04:47:51;;;;;;;17.7;10.35;;;;;;;-1.08;85.67773;95218.72;;;;
2019/12/01 04:48:52;;;;;;;17.7;10.35;;;;;;;-1.08;85.67773;95218.72;;;;
2019/12/01 04:49:53;;;;;;;17.7;10.35;;;;;;;-1.08;85.67773;95218.72;;;;
2019/12/01 04:50:54;;;;;;;17.7;10.35;;;;;;;-1.08;85.67773;95218.72;;;;
2019/12/01 04:51:57;;;;;;;17.7;10.35;;;;;;;-1.08;85.67773;95218.72;;;;
2019/12/01 04:53:01;;;;;;;17.65;9.799999;;;;;;;-1.03;85.70605;95188.25;;;;
2019/12/01 04:54:04;;;;;;;17.65;9.799999;;;;;;;-1.03;85.70605;95188.25;;;;
2019/12/01 04:55:07;;;;;;;17.65;9.799999;;;;;;;-1.03;85.70605;95188.25;;;;
2019/12/01 04:56:08;;;;;;;17.65;9.799999;;;;;;;-1.03;85.70605;95188.25;;;;
2019/12/01 04:57:14;;;;;;;17.65;9.799999;;;;;;;-1.03;85.70605;95188.25;;;;
2019/12/01 04:58:19;;;;;;;17.65;9.799999;;;;;;;-1.03;85.70605;95188.25;;;;
2019/12/01 04:59:20;;;;;;;17.65;9.799999;;;;;;;-1.03;85.70605;95188.25;;;;
2019/12/01 05:00:22;;;;;;;17.65;9.799999;;;;;;;-1.03;85.70605;95188.25;;;;
2019/12/01 05:01:23;;;;;;;17.65;9.799999;;;;;;;-1.03;85.70605;95188.25;;;;
2019/12/01 05:02:26;;;;;;;17.65;9.799999;;;;;;;-1.03;85.70605;95188.25;;;;
2019/12/01 05:03:31;;;;;;;17.65;9.799999;;;;;;;-1.03;85.70605;95188.25;;;;
2019/12/01 05:04:33;;;;;;;16.9;10.1;;;;;;;-1.04;85.81836;95175.5;;;;
2019/12/01 05:05:35;;;;;;;16.9;10.1;;;;;;;-1.04;85.81836;95175.5;;;;
2019/12/01 05:06:36;;;;;;;16.9;10.1;;;;;;;-1.04;85.81836;95175.5;;;;
2019/12/01 05:07:38;;;;;;;16.9;10.1;;;;;;;-1.04;85.81836;95175.5;;;;
2019/12/01 05:08:39;;;;;;;16.9;10.1;;;;;;;-1.04;85.81836;95175.5;;;;
2019/12/01 05:09:40;;;;;;;16.9;10.1;;;;;;;-1.04;85.81836;95175.5;;;;
2019/12/01 05:10:41;;;;;;;16.9;10.1;;;;;;;-1.04;85.81836;95175.5;;;;
2019/12/01 05:11:43;;;;;;;16.9;10.1;;;;;;;-1.04;85.81836;95175.5;;;;
2019/12/01 05:12:44;;;;;;;16.9;10.1;;;;;;;-1.04;85.81836;95175.5;;;;
2019/12/01 05:13:45;;;;;;;16.9;10.1;;;;;;;-1.04;85.81836;95175.5;;;;
2019/12/01 05:14:46;;;;;;;18.05;9.7;;;;;;;-1.15;86.20215;95193.05;;;;
2019/12/01 05:15:47;;;;;;;18.05;9.7;;;;;;;-1.15;86.20215;95193.05;;;;
2019/12/01 05:16:48;;;;;;;18.05;9.7;;;;;;;-1.15;86.20215;95193.05;;;;
2019/12/01 05:17:49;;;;;;;18.05;9.7;;;;;;;-1.15;86.20215;95193.05;;;;
2019/12/01 05:18:50;;;;;;;18.05;9.7;;;;;;;-1.15;86.20215;95193.05;;;;
2019/12/01 05:19:51;;;;;;;18.05;9.7;;;;;;;-1.15;86.20215;95193.05;;;;
2019/12/01 05:20:53;;;;;;;18.05;9.7;;;;;;;-1.15;86.20215;95193.05;;;;
2019/12/01 05:21:54;;;;;;;18.05;9.7;;;;;;;-1.15;86.20215;95193.05;;;;
2019/12/01 05:22:55;;;;;;;18.05;9.7;;;;;;;-1.15;86.20215;95193.05;;;;
2019/12/01 05:23:56;;;;;;;18.05;9.7;;;;;;;-1.15;86.20215;95193.05;;;;
2019/12/01 05:24:57;;;;;;;17.1;9.4;;;;;;;-1.24;86.47559;95189.17;;;;
2019/12/01 05:25:58;;;;;;;17.1;9.4;;;;;;;-1.24;86.47559;95189.17;;;;
2019/12/01 05:26:59;;;;;;;17.1;9.4;;;;;;;-1.24;86.47559;95189.17;;;;
2019/12/01 05:28:00;;;;;;;17.1;9.4;;;;;;;-1.24;86.47559;95189.17;;;;
2019/12/01 05:29:02;;;;;;;17.1;9.4;;;;;;;-1.24;86.47559;95189.17;;;;
2019/12/01 05:30:03;;;;;;;17.1;9.4;;;;;;;-1.24;86.47559;95189.17;;;;
2019/12/01 05:31:04;;;;;;;17.1;9.4;;;;;;;-1.24;86.47559;95189.17;;;;
2019/12/01 05:32:05;;;;;;;17.1;9.4;;;;;;;-1.24;86.47559;95189.17;;;;
2019/12/01 05:33:06;;;;;;;17.1;9.4;;;;;;;-1.24;86.47559;95189.17;;;;
2019/12/01 05:34:07;;;;;;;17.1;9.4;;;;;;;-1.24;86.47559;95189.17;;;;
2019/12/01 05:35:08;;;;;;;17.1;9.4;;;;;;;-1.24;86.47559;95189.17;;;;
2019/12/01 05:36:09;;;;;;;16.85;9.400002;;;;;;;-1.33;86.80859;95186.21;;;;
2019/12/01 05:37:11;;;;;;;16.85;9.400002;;;;;;;-1.33;86.80859;95186.21;;;;
2019/12/01 05:38:12;;;;;;;16.85;9.400002;;;;;;;-1.33;86.80859;95186.21;;;;
2019/12/01 05:39:13;;;;;;;16.85;9.400002;;;;;;;-1.33;86.80859;95186.21;;;;
2019/12/01 05:40:14;;;;;;;16.85;9.400002;;;;;;;-1.33;86.80859;95186.21;;;;
2019/12/01 05:41:15;;;;;;;16.85;9.400002;;;;;;;-1.33;86.80859;95186.21;;;;
2019/12/01 05:42:18;;;;;;;16.85;9.400002;;;;;;;-1.33;86.80859;95186.21;;;;
2019/12/01 05:43:19;;;;;;;16.85;9.400002;;;;;;;-1.33;86.80859;95186.21;;;;
2019/12/01 05:44:20;;;;;;;16.85;9.400002;;;;;;;-1.33;86.80859;95186.21;;;;
2019/12/01 05:45:23;;;;;;;16.85;9.400002;;;;;;;-1.33;86.80859;95186.21;;;;
2019/12/01 05:46:24;;;;;;;15;9.25;;;;;;;-1.35;87.19727;95154.28;;;;
2019/12/01 05:47:25;;;;;;;15;9.25;;;;;;;-1.35;87.19727;95154.28;;;;
2019/12/01 05:48:26;;;;;;;15;9.25;;;;;;;-1.35;87.19727;95154.28;;;;
2019/12/01 05:49:27;;;;;;;15;9.25;;;;;;;-1.35;87.19727;95154.28;;;;
2019/12/01 05:50:28;;;;;;;15;9.25;;;;;;;-1.35;87.19727;95154.28;;;;
2019/12/01 05:51:30;;;;;;;15;9.25;;;;;;;-1.35;87.19727;95154.28;;;;
2019/12/01 05:52:31;;;;;;;15;9.25;;;;;;;-1.35;87.19727;95154.28;;;;
2019/12/01 05:53:32;;;;;;;15;9.25;;;;;;;-1.35;87.19727;95154.28;;;;
2019/12/01 05:54:33;;;;;;;15;9.25;;;;;;;-1.35;87.19727;95154.28;;;;
2019/12/01 05:55:34;;;;;;;15;9.25;;;;;;;-1.35;87.19727;95154.28;;;;
2019/12/01 05:56:35;;;;;;;15;9.25;;;;;;;-1.35;87.19727;95154.28;;;;
2019/12/01 05:57:36;;;;;;;14.9;9.400002;;;;;;;-1.39;87.10645;95148.5;;;;
2019/12/01 05:58:37;;;;;;;14.9;9.400002;;;;;;;-1.39;87.10645;95148.5;;;;
2019/12/01 05:59:38;;;;;;;14.9;9.400002;;;;;;;-1.39;87.10645;95148.5;;;;
2019/12/01 06:00:39;;;;;;;14.9;9.400002;;;;;;;-1.39;87.10645;95148.5;;;;
2019/12/01 06:01:41;;;;;;;14.9;9.400002;;;;;;;-1.39;87.10645;95148.5;;;;
2019/12/01 06:02:42;;;;;;;14.9;9.400002;;;;;;;-1.39;87.10645;95148.5;;;;
2019/12/01 06:03:43;;;;;;;14.9;9.400002;;;;;;;-1.39;87.10645;95148.5;;;;
2019/12/01 06:04:44;;;;;;;14.9;9.400002;;;;;;;-1.39;87.10645;95148.5;;;;
2019/12/01 06:05:45;;;;;;;14.9;9.400002;;;;;;;-1.39;87.10645;95148.5;;;;
2019/12/01 06:06:46;;;;;;;14.9;9.400002;;;;;;;-1.39;87.10645;95148.5;;;;
2019/12/01 06:07:48;;;;;;;18.5;10.1;;;;;;;-1.49;87.45996;95136.81;;;;
2019/12/01 06:08:49;;;;;;;18.5;10.1;;;;;;;-1.49;87.45996;95136.81;;;;
2019/12/01 06:09:50;;;;;;;18.5;10.1;;;;;;;-1.49;87.45996;95136.81;;;;
2019/12/01 06:10:51;;;;;;;18.5;10.1;;;;;;;-1.49;87.45996;95136.81;;;;
2019/12/01 06:11:52;;;;;;;18.5;10.1;;;;;;;-1.49;87.45996;95136.81;;;;
2019/12/01 06:12:53;;;;;;;18.5;10.1;;;;;;;-1.49;87.45996;95136.81;;;;
2019/12/01 06:13:54;;;;;;;18.5;10.1;;;;;;;-1.49;87.45996;95136.81;;;;
2019/12/01 06:14:55;;;;;;;18.5;10.1;;;;;;;-1.49;87.45996;95136.81;;;;
2019/12/01 06:15:56;;;;;;;18.5;10.1;;;;;;;-1.49;87.45996;95136.81;;;;
2019/12/01 06:16:57;;;;;;;18.5;10.1;;;;;;;-1.49;87.45996;95136.81;;;;
2019/12/01 06:17:59;;;;;;;15.85;9.849999;;;;;;;-1.46;87.63184;95133.44;;;;
2019/12/01 06:19:00;;;;;;;15.85;9.849999;;;;;;;-1.46;87.63184;95133.44;;;;
2019/12/01 06:20:01;;;;;;;15.85;9.849999;;;;;;;-1.46;87.63184;95133.44;;;;
2019/12/01 06:21:02;;;;;;;15.85;9.849999;;;;;;;-1.46;87.63184;95133.44;;;;
2019/12/01 06:22:03;;;;;;;15.85;9.849999;;;;;;;-1.46;87.63184;95133.44;;;;
2019/12/01 06:23:04;;;;;;;15.85;9.849999;;;;;;;-1.46;87.63184;95133.44;;;;
2019/12/01 06:24:06;;;;;;;15.85;9.849999;;;;;;;-1.46;87.63184;95133.44;;;;
2019/12/01 06:25:07;;;;;;;15.85;9.849999;;;;;;;-1.46;87.63184;95133.44;;;;
2019/12/01 06:26:08;;;;;;;15.85;9.849999;;;;;;;-1.46;87.63184;95133.44;;;;
2019/12/01 06:27:09;;;;;;;15.85;9.849999;;;;;;;-1.46;87.63184;95133.44;;;;
2019/12/01 06:28:10;;;;;;;15.85;9.849999;;;;;;;-1.46;87.63184;95133.44;;;;
2019/12/01 06:29:11;;;;;;;19.55;10.35;;;;;;;-1.37;87.65137;95121.36;;;;
2019/12/01 06:30:12;;;;;;;19.55;10.35;;;;;;;-1.37;87.65137;95121.36;;;;
2019/12/01 06:31:13;;;;;;;19.55;10.35;;;;;;;-1.37;87.65137;95121.36;;;;
2019/12/01 06:32:14;;;;;;;19.55;10.35;;;;;;;-1.37;87.65137;95121.36;;;;
2019/12/01 06:33:16;;;;;;;19.55;10.35;;;;;;;-1.37;87.65137;95121.36;;;;
2019/12/01 06:34:17;;;;;;;19.55;10.35;;;;;;;-1.37;87.65137;95121.36;;;;
2019/12/01 06:35:18;;;;;;;19.55;10.35;;;;;;;-1.37;87.65137;95121.36;;;;
2019/12/01 06:36:19;;;;;;;19.55;10.35;;;;;;;-1.37;87.65137;95121.36;;;;
2019/12/01 06:37:20;;;;;;;19.55;10.35;;;;;;;-1.37;87.65137;95121.36;;;;
2019/12/01 06:38:21;;;;;;;19.55;10.35;;;;;;;-1.37;87.65137;95121.36;;;;
2019/12/01 06:39:22;;;;;;;19.2;10.75;;;;;;;-1.22;87.56836;95099.8;;;;
2019/12/01 06:40:23;;;;;;;19.2;10.75;;;;;;;-1.22;87.56836;95099.8;;;;
2019/12/01 06:41:25;;;;;;;19.2;10.75;;;;;;;-1.22;87.56836;95099.8;;;;
2019/12/01 06:42:26;;;;;;;19.2;10.75;;;;;;;-1.22;87.56836;95099.8;;;;
2019/12/01 06:43:27;;;;;;;19.2;10.75;;;;;;;-1.22;87.56836;95099.8;;;;
2019/12/01 06:44:28;;;;;;;19.2;10.75;;;;;;;-1.22;87.56836;95099.8;;;;
2019/12/01 06:45:29;;;;;;;19.2;10.75;;;;;;;-1.22;87.56836;95099.8;;;;
2019/12/01 06:46:30;;;;;;;19.2;10.75;;;;;;;-1.22;87.56836;95099.8;;;;
2019/12/01 06:47:32;;;;;;;19.2;10.75;;;;;;;-1.22;87.56836;95099.8;;;;
2019/12/01 06:48:34;;;;;;;19.2;10.75;;;;;;;-1.22;87.56836;95099.8;;;;
2019/12/01 06:49:35;;;;;;;19.2;10.75;;;;;;;-1.22;87.56836;95099.8;;;;
2019/12/01 06:50:36;;;;;;;21.05;11.45;;;;;;;-1.18;87.55273;95074.22;;;;
2019/12/01 06:51:37;;;;;;;21.05;11.45;;;;;;;-1.18;87.55273;95074.22;;;;
2019/12/01 06:52:38;;;;;;;21.05;11.45;;;;;;;-1.18;87.55273;95074.22;;;;
2019/12/01 06:53:39;;;;;;;21.05;11.45;;;;;;;-1.18;87.55273;95074.22;;;;
2019/12/01 06:54:40;;;;;;;21.05;11.45;;;;;;;-1.18;87.55273;95074.22;;;;
2019/12/01 06:55:41;;;;;;;21.05;11.45;;;;;;;-1.18;87.55273;95074.22;;;;
2019/12/01 06:56:42;;;;;;;21.05;11.45;;;;;;;-1.18;87.55273;95074.22;;;;
2019/12/01 06:57:43;;;;;;;21.05;11.45;;;;;;;-1.18;87.55273;95074.22;;;;
2019/12/01 06:58:44;;;;;;;21.05;11.45;;;;;;;-1.18;87.55273;95074.22;;;;
2019/12/01 06:59:46;;;;;;;21.05;11.45;;;;;;;-1.18;87.55273;95074.22;;;;
2019/12/01 07:00:47;;;;;;;19.2;11.1;;;;;;;-1.18;87.63574;95075.55;;;;
2019/12/01 07:01:48;;;;;;;19.2;11.1;;;;;;;-1.18;87.63574;95075.55;;;;
2019/12/01 07:02:49;;;;;;;19.2;11.1;;;;;;;-1.18;87.63574;95075.55;;;;
2019/12/01 07:03:50;;;;;;;19.2;11.1;;;;;;;-1.18;87.63574;95075.55;;;;
2019/12/01 07:04:51;;;;;;;19.2;11.1;;;;;;;-1.18;87.63574;95075.55;;;;
2019/12/01 07:05:52;;;;;;;19.2;11.1;;;;;;;-1.18;87.63574;95075.55;;;;
2019/12/01 07:06:53;;;;;;;19.2;11.1;;;;;;;-1.18;87.63574;95075.55;;;;
2019/12/01 07:07:54;;;;;;;19.2;11.1;;;;;;;-1.18;87.63574;95075.55;;;;
2019/12/01 07:08:56;;;;;;;19.2;11.1;;;;;;;-1.18;87.63574;95075.55;;;;
2019/12/01 07:09:57;;;;;;;19.2;11.1;;;;;;;-1.18;87.63574;95075.55;;;;
2019/12/01 07:10:58;;;;;;;20.4;11.75;;;;;;;-1.16;87.75391;95068.26;;;;
2019/12/01 07:11:59;;;;;;;20.4;11.75;;;;;;;-1.16;87.75391;95068.26;;;;
2019/12/01 07:13:00;;;;;;;20.4;11.75;;;;;;;-1.16;87.75391;95068.26;;;;
2019/12/01 07:14:01;;;;;;;20.4;11.75;;;;;;;-1.16;87.75391;95068.26;;;;
2019/12/01 07:15:02;;;;;;;20.4;11.75;;;;;;;-1.16;87.75391;95068.26;;;;
2019/12/01 07:16:03;;;;;;;20.4;11.75;;;;;;;-1.16;87.75391;95068.26;;;;
2019/12/01 07:17:04;;;;;;;20.4;11.75;;;;;;;-1.16;87.75391;95068.26;;;;
2019/12/01 07:18:05;;;;;;;20.4;11.75;;;;;;;-1.16;87.75391;95068.26;;;;
2019/12/01 07:19:07;;;;;;;20.4;11.75;;;;;;;-1.16;87.75391;95068.26;;;;
2019/12/01 07:20:08;;;;;;;20.4;11.75;;;;;;;-1.16;87.75391;95068.26;;;;
2019/12/01 07:21:09;;;;;;;20.4;11.75;;;;;;;-1.16;87.75391;95068.26;;;;
2019/12/01 07:22:10;;;;;;;21.4;12.7;;;;;;;-1.08;87.98047;95073.93;;;;
2019/12/01 07:23:11;;;;;;;21.4;12.7;;;;;;;-1.08;87.98047;95073.93;;;;
2019/12/01 07:24:12;;;;;;;21.4;12.7;;;;;;;-1.08;87.98047;95073.93;;;;
2019/12/01 07:25:13;;;;;;;21.4;12.7;;;;;;;-1.08;87.98047;95073.93;;;;
2019/12/01 07:26:14;;;;;;;21.4;12.7;;;;;;;-1.08;87.98047;95073.93;;;;
2019/12/01 07:27:15;;;;;;;21.4;12.7;;;;;;;-1.08;87.98047;95073.93;;;;
2019/12/01 07:28:16;;;;;;;21.4;12.7;;;;;;;-1.08;87.98047;95073.93;;;;
2019/12/01 07:29:18;;;;;;;21.4;12.7;;;;;;;-1.08;87.98047;95073.93;;;;
2019/12/01 07:30:22;;;;;;;21.4;12.7;;;;;;;-1.08;87.98047;95073.93;;;;